Time;durP1;ratioP1;P1;durP2;ratioP2;P2;SDS_P1;SDS_P2;PMS_P1;PMS_P2;Temp;Humidity;BMP_temperature;BMP_pressure;BME280_temperature;BME280_humidity;BME280_pressure;Samples;Min_cycle;Max_cycle;Signal;HPM_P1;HPM_P2
2024/01/18 00:00:10;;;;;;;;;;;;;;;;;;5090115;28;20435;-71
2024/01/18 00:02:36;;;;;;;;;;;;;;;;;;5091609;28;20264;-72
2024/01/18 00:05:02;;;;;;;;;;;;;;;;;;5091575;28;19924;-71
2024/01/18 00:07:28;;;;;;;;;;;;;;;;;;5088468;28;19989;-71
2024/01/18 00:09:55;;;;;;;;;;;;;;;;;;5091207;28;19961;-72
2024/01/18 00:12:21;;;;;;;;;;;;;;;;;;5091143;28;19965;-72
2024/01/18 00:14:47;;;;;;;;;;;;;;;;;;5091491;28;19923;-72
2024/01/18 00:17:13;;;;;;;;;;;;;;;;;;5090176;28;19924;-72
2024/01/18 00:19:40;;;;;;;;;;;;;;;;;;5093101;28;19965;-73
2024/01/18 00:22:06;;;;;;;;;;;;;;;;;;5086558;28;20413;-72
2024/01/18 00:24:32;;;;;;;;;;;;;;;;;;5091144;28;19996;-72
2024/01/18 00:27:00;;;;;;;;;;;;;;;;;;5091382;28;19923;-72
2024/01/18 00:29:26;;;;;;;;;;;;;;;;;;5091432;28;19920;-72
2024/01/18 00:31:53;;;;;;;;;;;;;;;;;;5091209;28;19981;-71
2024/01/18 00:34:19;;;;;;;;;;;;;;;;;;5092266;28;19924;-72
2024/01/18 00:36:46;;;;;;;;;;;;;;;;;;5090824;28;19923;-71
2024/01/18 00:39:16;;;;;;;;;;;;;;;;;;5089979;28;19973;-72
2024/01/18 00:41:42;;;;;;;;;;;;;;;;;;5091151;28;19920;-72
2024/01/18 00:44:09;;;;;;;;;;;;;;;;;;5089090;28;20447;-72
2024/01/18 00:46:35;;;;;;;;;;;;;;;;;;5091078;28;20015;-72
2024/01/18 00:49:01;;;;;;;;;;;;;;;;;;5092079;28;20052;-72
2024/01/18 00:51:27;;;;;;;;;;;;;;;;;;5090856;28;19924;-71
2024/01/18 00:53:54;;;;;;;;;;;;;;;;;;5089850;28;19954;-72
2024/01/18 00:56:20;;;;;;;;;;;;;;;;;;5090939;28;19924;-72
2024/01/18 00:58:47;;;;;;;;;;;;;;;;;;5090627;28;20331;-71
2024/01/18 01:01:13;;;;;;;;;;;;;;;;;;5090795;28;20332;-72
2024/01/18 01:03:39;;;;;;;;;;;;;;;;;;5090956;28;19993;-72
2024/01/18 01:06:05;;;;;;;;;;;;;;;;;;5090616;28;19923;-72
2024/01/18 01:08:32;;;;;;;;;;;;;;;;;;5090451;28;19965;-72
2024/01/18 01:10:58;;;;;;;;;;;;;;;;;;5089608;28;19969;-72
2024/01/18 01:13:24;;;;;;;;;;;;;;;;;;5093986;28;20052;-72
2024/01/18 01:15:50;;;;;;;;;;;;;;;;;;5091809;28;19920;-72
2024/01/18 01:18:17;;;;;;;;;;;;;;;;;;5090879;28;19971;-72
2024/01/18 01:20:43;;;;;;;;;;;;;;;;;;5090855;28;19923;-72
2024/01/18 01:23:09;;;;;;;;;;;;;;;;;;5090591;28;19920;-72
2024/01/18 01:25:36;;;;;;;;;;;;;;;;;;5094255;28;20374;-73
2024/01/18 01:28:02;;;;;;;;;;;;;;;;;;5095664;28;20294;-72
2024/01/18 01:30:28;;;;;;;;;;;;;;;;;;5094340;28;19928;-73
2024/01/18 01:32:55;;;;;;;;;;;;;;;;;;5094270;28;19920;-72
2024/01/18 01:35:21;;;;;;;;;;;;;;;;;;5094402;28;19924;-72
2024/01/18 01:37:48;;;;;;;;;;;;;;;;;;5094108;28;20382;-73
2024/01/18 01:40:14;;;;;;;;;;;;;;;;;;5094322;28;19919;-73
2024/01/18 01:42:40;;;;;;;;;;;;;;;;;;5094031;28;19924;-73
2024/01/18 01:45:07;;;;;;;;;;;;;;;;;;5092688;28;20332;-72
2024/01/18 01:47:33;;;;;;;;;;;;;;;;;;5097002;28;19924;-73
2024/01/18 01:49:59;;;;;;;;;;;;;;;;;;5095508;28;20390;-72
2024/01/18 01:52:25;;;;;;;;;;;;;;;;;;5093834;28;20378;-72
2024/01/18 01:54:52;;;;;;;;;;;;;;;;;;5096520;28;20390;-72
2024/01/18 01:57:18;;;;;;;;;;;;;;;;;;5095617;28;20360;-72
2024/01/18 01:59:44;;;;;;;;;;;;;;;;;;5093556;28;19928;-73
2024/01/18 02:02:10;;;;;;;;;;;;;;;;;;5093717;28;19928;-72
2024/01/18 02:04:35;;;;;;;;;;;;;;;;;;5093784;28;19924;-73
2024/01/18 02:07:02;;;;;;;;;;;;;;;;;;5093762;28;19981;-72
2024/01/18 02:09:28;;;;;;;;;;;;;;;;;;5093552;28;19965;-72
2024/01/18 02:11:54;;;;;;;;;;;;;;;;;;5093613;28;19977;-72
2024/01/18 02:14:20;;;;;;;;;;;;;;;;;;5092655;28;20378;-72
2024/01/18 02:16:47;;;;;;;;;;;;;;;;;;5093750;28;20358;-72
2024/01/18 02:19:13;;;;;;;;;;;;;;;;;;5093788;28;20339;-72
2024/01/18 02:21:39;;;;;;;;;;;;;;;;;;5093530;28;20287;-73
2024/01/18 02:24:05;;;;;;;;;;;;;;;;;;5093097;28;19928;-74
2024/01/18 02:26:32;;;;;;;;;;;;;;;;;;5093442;28;19962;-73
2024/01/18 02:28:58;;;;;;;;;;;;;;;;;;5093450;28;19969;-73
2024/01/18 02:31:24;;;;;;;;;;;;;;;;;;5091927;28;19928;-72
2024/01/18 02:33:50;;;;;;;;;;;;;;;;;;5092625;28;19977;-73
2024/01/18 02:36:17;;;;;;;;;;;;;;;;;;5093238;28;19920;-73
2024/01/18 02:38:43;;;;;;;;;;;;;;;;;;5093347;28;19920;-73
2024/01/18 02:41:09;;;;;;;;;;;;;;;;;;5093074;28;19933;-73
2024/01/18 02:43:35;;;;;;;;;;;;;;;;;;5092912;28;19924;-72
2024/01/18 02:46:01;;;;;;;;;;;;;;;;;;5093103;28;19920;-72
2024/01/18 02:48:28;;;;;;;;;;;;;;;;;;5091647;28;20416;-73
2024/01/18 02:50:54;;;;;;;;;;;;;;;;;;5093024;28;20276;-73
2024/01/18 02:53:20;;;;;;;;;;;;;;;;;;5092796;28;20382;-73
2024/01/18 02:55:47;;;;;;;;;;;;;;;;;;5094995;28;20325;-73
2024/01/18 02:58:13;;;;;;;;;;;;;;;;;;5092775;28;20535;-72
2024/01/18 03:00:39;;;;;;;;;;;;;;;;;;5092556;28;19930;-72
2024/01/18 03:03:06;;;;;;;;;;;;;;;;;;5091174;28;19977;-72
2024/01/18 03:05:32;;;;;;;;;;;;;;;;;;5091871;28;19942;-72
2024/01/18 03:07:58;;;;;;;;;;;;;;;;;;5093274;28;19924;-72
2024/01/18 03:10:25;;;;;;;;;;;;;;;;;;5091956;28;19924;-72
2024/01/18 03:12:51;;;;;;;;;;;;;;;;;;5093513;28;19974;-72
2024/01/18 03:15:18;;;;;;;;;;;;;;;;;;5092961;28;19973;-72
2024/01/18 03:17:44;;;;;;;;;;;;;;;;;;5092830;28;19927;-72
2024/01/18 03:20:11;;;;;;;;;;;;;;;;;;5092839;28;19924;-72
2024/01/18 03:22:37;;;;;;;;;;;;;;;;;;5096023;28;19919;-72
2024/01/18 03:25:03;;;;;;;;;;;;;;;;;;5113024;28;19919;-73
2024/01/18 03:27:29;;;;;;;;;;;;;;;;;;5112992;28;20454;-72
2024/01/18 03:29:56;;;;;;;;;;;;;;;;;;5103951;28;19923;-73
2024/01/18 03:32:22;;;;;;;;;;;;;;;;;;5113122;28;19919;-74
2024/01/18 03:34:48;;;;;;;;;;;;;;;;;;5112882;28;19973;-72
2024/01/18 03:37:14;;;;;;;;;;;;;;;;;;5112943;28;19924;-74
2024/01/18 03:39:41;;;;;;;;;;;;;;;;;;5113304;28;19923;-75
2024/01/18 03:42:07;;;;;;;;;;;;;;;;;;5112690;28;19973;-74
2024/01/18 03:44:33;;;;;;;;;;;;;;;;;;5112298;28;19920;-73
2024/01/18 03:47:00;;;;;;;;;;;;;;;;;;5093090;28;20486;-74
2024/01/18 03:49:26;;;;;;;;;;;;;;;;;;5092494;28;20374;-74
2024/01/18 03:51:52;;;;;;;;;;;;;;;;;;5092308;28;20354;-74
2024/01/18 03:54:19;;;;;;;;;;;;;;;;;;5092302;28;19981;-73
2024/01/18 03:56:45;;;;;;;;;;;;;;;;;;5092293;28;19919;-72
2024/01/18 03:59:11;;;;;;;;;;;;;;;;;;5092340;28;20378;-72
2024/01/18 04:01:39;;;;;;;;;;;;;;;;;;5091157;28;19920;-72
2024/01/18 04:04:05;;;;;;;;;;;;;;;;;;5093435;28;19928;-73
2024/01/18 04:06:31;;;;;;;;;;;;;;;;;;5092036;28;19966;-73
2024/01/18 04:08:57;;;;;;;;;;;;;;;;;;5091997;28;19924;-73
2024/01/18 04:11:24;;;;;;;;;;;;;;;;;;5104475;28;19965;-74
2024/01/18 04:13:50;;;;;;;;;;;;;;;;;;5091852;28;19924;-73
2024/01/18 04:16:16;;;;;;;;;;;;;;;;;;5090869;28;19924;-73
2024/01/18 04:18:42;;;;;;;;;;;;;;;;;;5091859;28;19927;-74
2024/01/18 04:21:08;;;;;;;;;;;;;;;;;;5091946;28;19919;-73
2024/01/18 04:23:35;;;;;;;;;;;;;;;;;;5091877;28;20382;-73
2024/01/18 04:26:01;;;;;;;;;;;;;;;;;;5103753;28;19920;-73
2024/01/18 04:28:28;;;;;;;;;;;;;;;;;;5112176;28;19980;-73
2024/01/18 04:30:54;;;;;;;;;;;;;;;;;;5111518;28;19970;-73
2024/01/18 04:33:21;;;;;;;;;;;;;;;;;;5106490;28;20428;-73
2024/01/18 04:35:47;;;;;;;;;;;;;;;;;;5091608;28;20283;-73
2024/01/18 04:38:13;;;;;;;;;;;;;;;;;;5092270;28;20347;-73
2024/01/18 04:40:39;;;;;;;;;;;;;;;;;;5097737;28;19919;-72
2024/01/18 04:43:06;;;;;;;;;;;;;;;;;;5091628;28;19928;-71
2024/01/18 04:45:32;;;;;;;;;;;;;;;;;;5092013;28;19973;-72
2024/01/18 04:47:58;;;;;;;;;;;;;;;;;;5091734;28;19973;-71
2024/01/18 04:50:25;;;;;;;;;;;;;;;;;;5090329;28;19920;-72
2024/01/18 04:52:52;;;;;;;;;;;;;;;;;;5091489;28;19923;-72
2024/01/18 04:55:18;;;;;;;;;;;;;;;;;;5091780;28;19973;-72
2024/01/18 04:57:44;;;;;;;;;;;;;;;;;;5111289;28;19945;-71
2024/01/18 05:00:11;;;;;;;;;;;;;;;;;;5114831;28;20416;-71
2024/01/18 05:02:37;;;;;;;;;;;;;;;;;;5095489;28;20348;-72
2024/01/18 05:05:04;;;;;;;;;;;;;;;;;;5093638;28;19928;-71
2024/01/18 05:07:30;;;;;;;;;;;;;;;;;;5095372;28;20064;-72
2024/01/18 05:09:57;;;;;;;;;;;;;;;;;;5095541;28;19920;-72
2024/01/18 05:12:23;;;;;;;;;;;;;;;;;;5098037;28;19965;-72
2024/01/18 05:14:49;;;;;;;;;;;;;;;;;;5095074;28;19981;-72
2024/01/18 05:17:16;;;;;;;;;;;;;;;;;;5092321;28;19924;-71
2024/01/18 05:19:43;;;;;;;;;;;;;;;;;;5095127;28;20370;-72
2024/01/18 05:22:09;;;;;;;;;;;;;;;;;;5099598;28;19923;-72
2024/01/18 05:24:35;;;;;;;;;;;;;;;;;;5094989;28;19985;-72
2024/01/18 05:27:01;;;;;;;;;;;;;;;;;;5109524;28;19972;-72
2024/01/18 05:29:27;;;;;;;;;;;;;;;;;;5100105;28;19920;-72
2024/01/18 05:31:54;;;;;;;;;;;;;;;;;;5098062;28;19920;-72
2024/01/18 05:34:20;;;;;;;;;;;;;;;;;;5095755;28;19932;-72
2024/01/18 05:36:47;;;;;;;;;;;;;;;;;;5094739;28;19920;-71
2024/01/18 05:39:14;;;;;;;;;;;;;;;;;;5094790;28;19927;-71
2024/01/18 05:41:40;;;;;;;;;;;;;;;;;;5093610;28;19969;-72
2024/01/18 05:44:06;;;;;;;;;;;;;;;;;;5094326;28;19981;-72
2024/01/18 05:46:32;;;;;;;;;;;;;;;;;;5093230;28;20378;-72
2024/01/18 05:48:59;;;;;;;;;;;;;;;;;;5108858;28;19920;-71
2024/01/18 05:51:25;;;;;;;;;;;;;;;;;;5115226;28;19919;-72
2024/01/18 05:53:51;;;;;;;;;;;;;;;;;;5114425;28;19920;-72
2024/01/18 05:56:17;;;;;;;;;;;;;;;;;;5114616;28;20373;-72
2024/01/18 05:58:43;;;;;;;;;;;;;;;;;;5114285;28;20431;-72
2024/01/18 06:01:10;;;;;;;;;;;;;;;;;;5113032;28;19924;-73
2024/01/18 06:03:36;;;;;;;;;;;;;;;;;;5096864;28;19927;-73
2024/01/18 06:06:04;;;;;;;;;;;;;;;;;;5094206;28;19974;-72
2024/01/18 06:08:30;;;;;;;;;;;;;;;;;;5093907;28;20575;-72
2024/01/18 06:10:56;;;;;;;;;;;;;;;;;;5094071;28;19924;-72
2024/01/18 06:13:23;;;;;;;;;;;;;;;;;;5092851;28;19965;-72
2024/01/18 06:15:50;;;;;;;;;;;;;;;;;;5094911;28;19920;-72
2024/01/18 06:18:16;;;;;;;;;;;;;;;;;;5093908;28;20294;-74
2024/01/18 06:20:42;;;;;;;;;;;;;;;;;;5105704;28;20366;-73
2024/01/18 06:23:08;;;;;;;;;;;;;;;;;;5114032;28;19923;-73
2024/01/18 06:25:35;;;;;;;;;;;;;;;;;;5113828;28;19920;-72
2024/01/18 06:28:02;;;;;;;;;;;;;;;;;;5103439;28;20006;-74
2024/01/18 06:30:28;;;;;;;;;;;;;;;;;;5093613;28;19920;-74
2024/01/18 06:32:54;;;;;;;;;;;;;;;;;;5094656;28;19950;-72
2024/01/18 06:35:20;;;;;;;;;;;;;;;;;;5094566;28;19932;-72
2024/01/18 06:37:46;;;;;;;;;;;;;;;;;;5104831;28;19966;-73
2024/01/18 06:40:13;;;;;;;;;;;;;;;;;;5093502;28;20185;-73
2024/01/18 06:42:39;;;;;;;;;;;;;;;;;;5105400;28;20374;-72
2024/01/18 06:45:05;;;;;;;;;;;;;;;;;;5095908;28;20336;-73
2024/01/18 06:47:33;;;;;;;;;;;;;;;;;;5093322;28;19989;-73
2024/01/18 06:49:59;;;;;;;;;;;;;;;;;;5093204;28;19920;-73
2024/01/18 06:52:25;;;;;;;;;;;;;;;;;;5109385;28;20437;-72
2024/01/18 06:54:52;;;;;;;;;;;;;;;;;;5113447;28;19962;-73
2024/01/18 06:57:19;;;;;;;;;;;;;;;;;;5113060;28;19963;-75
2024/01/18 06:59:45;;;;;;;;;;;;;;;;;;5087548;28;19928;-73
2024/01/18 07:02:11;;;;;;;;;;;;;;;;;;5076196;28;19927;-72
2024/01/18 07:04:37;;;;;;;;;;;;;;;;;;5075317;28;19920;-74
2024/01/18 07:07:04;;;;;;;;;;;;;;;;;;5080227;28;19932;-76
2024/01/18 07:09:32;;;;;;;;;;;;;;;;;;5086227;28;19928;-70
2024/01/18 07:11:58;;;;;;;;;;;;;;;;;;5077714;28;19921;-70
2024/01/18 07:14:24;;;;;;;;;;;;;;;;;;5083646;28;19920;-69
2024/01/18 07:16:51;;;;;;;;;;;;;;;;;;5084620;28;19931;-70
2024/01/18 07:19:17;;;;;;;;;;;;;;;;;;5093233;28;19965;-70
2024/01/18 07:21:43;;;;;;;;;;;;;;;;;;5108243;28;20032;-70
2024/01/18 07:24:09;;;;;;;;;;;;;;;;;;5112622;28;20377;-69
2024/01/18 07:26:36;;;;;;;;;;;;;;;;;;5107860;28;19993;-70
2024/01/18 07:29:02;;;;;;;;;;;;;;;;;;5101231;28;19919;-70
2024/01/18 07:31:29;;;;;;;;;;;;;;;;;;5092022;28;19920;-69
2024/01/18 07:33:55;;;;;;;;;;;;;;;;;;5089550;28;20633;-69
2024/01/18 07:36:21;;;;;;;;;;;;;;;;;;5087740;28;19928;-70
2024/01/18 07:38:47;;;;;;;;;;;;;;;;;;5092313;28;19928;-70
2024/01/18 07:41:13;;;;;;;;;;;;;;;;;;5085600;28;19997;-71
2024/01/18 07:43:40;;;;;;;;;;;;;;;;;;5088263;28;19966;-70
2024/01/18 07:46:06;;;;;;;;;;;;;;;;;;5091329;28;19928;-70
2024/01/18 07:48:32;;;;;;;;;;;;;;;;;;5085970;28;19920;-69
2024/01/18 07:50:58;;;;;;;;;;;;;;;;;;5091896;28;20416;-70
2024/01/18 07:53:25;;;;;;;;;;;;;;;;;;5079230;28;20645;-69
2024/01/18 07:55:51;;;;;;;;;;;;;;;;;;5091958;28;20340;-70
2024/01/18 07:58:17;;;;;;;;;;;;;;;;;;5090230;28;19989;-70
2024/01/18 08:00:43;;;;;;;;;;;;;;;;;;5092142;28;19961;-69
2024/01/18 08:03:10;;;;;;;;;;;;;;;;;;5077318;28;20012;-70
2024/01/18 08:05:36;;;;;;;;;;;;;;;;;;5084315;28;19924;-70
2024/01/18 08:08:02;;;;;;;;;;;;;;;;;;5086917;28;20000;-69
2024/01/18 08:10:28;;;;;;;;;;;;;;;;;;5084590;28;19977;-70
2024/01/18 08:12:55;;;;;;;;;;;;;;;;;;5088819;28;19920;-70
2024/01/18 08:15:21;;;;;;;;;;;;;;;;;;5079863;28;19928;-70
2024/01/18 08:17:47;;;;;;;;;;;;;;;;;;5087079;28;19928;-70
2024/01/18 08:20:14;;;;;;;;;;;;;;;;;;5083235;28;19920;-70
2024/01/18 08:22:40;;;;;;;;;;;;;;;;;;5088465;28;20394;-70
2024/01/18 08:25:07;;;;;;;;;;;;;;;;;;5097216;28;19920;-70
2024/01/18 08:27:33;;;;;;;;;;;;;;;;;;5096420;28;19928;-70
2024/01/18 08:29:59;;;;;;;;;;;;;;;;;;5091551;28;19973;-69
2024/01/18 08:32:31;;;;;;;;;;;;;;;;;;5083528;28;19924;-70
2024/01/18 08:34:57;;;;;;;;;;;;;;;;;;5084440;28;20337;-69
2024/01/18 08:37:24;;;;;;;;;;;;;;;;;;5086723;28;20336;-69
2024/01/18 08:39:50;;;;;;;;;;;;;;;;;;5086508;28;19921;-69
2024/01/18 08:42:16;;;;;;;;;;;;;;;;;;5089201;28;20041;-69
2024/01/18 08:44:45;;;;;;;;;;;;;;;;;;5095532;28;19920;-70
2024/01/18 08:47:11;;;;;;;;;;;;;;;;;;5082247;28;19924;-70
2024/01/18 08:49:38;;;;;;;;;;;;;;;;;;5083202;28;19969;-70
2024/01/18 08:52:04;;;;;;;;;;;;;;;;;;5094625;28;20309;-70
2024/01/18 08:54:31;;;;;;;;;;;;;;;;;;5088989;28;19924;-70
2024/01/18 08:56:57;;;;;;;;;;;;;;;;;;5095001;28;19928;-71
2024/01/18 08:59:24;;;;;;;;;;;;;;;;;;5094587;28;19919;-70
2024/01/18 09:01:50;;;;;;;;;;;;;;;;;;5095106;28;19964;-70
2024/01/18 09:04:16;;;;;;;;;;;;;;;;;;5088124;28;19920;-70
2024/01/18 09:06:42;;;;;;;;;;;;;;;;;;5093353;28;20350;-70
2024/01/18 09:09:10;;;;;;;;;;;;;;;;;;5094975;28;19924;-70
2024/01/18 09:11:36;;;;;;;;;;;;;;;;;;5078916;28;19954;-70
2024/01/18 09:14:03;;;;;;;;;;;;;;;;;;5089436;28;20371;-69
2024/01/18 09:16:30;;;;;;;;;;;;;;;;;;5076221;28;20366;-70
2024/01/18 09:18:56;;;;;;;;;;;;;;;;;;5094014;28;20378;-69
2024/01/18 09:21:22;;;;;;;;;;;;;;;;;;5094168;28;20375;-71
2024/01/18 09:23:49;;;;;;;;;;;;;;;;;;5093947;28;20329;-70
2024/01/18 09:26:15;;;;;;;;;;;;;;;;;;5094680;28;20271;-70
2024/01/18 09:28:41;;;;;;;;;;;;;;;;;;5093224;28;20433;-70
2024/01/18 09:31:09;;;;;;;;;;;;;;;;;;5093649;28;19920;-70
2024/01/18 09:33:37;;;;;;;;;;;;;;;;;;5094509;28;19924;-71
2024/01/18 09:36:03;;;;;;;;;;;;;;;;;;5094613;28;19920;-69
2024/01/18 09:38:30;;;;;;;;;;;;;;;;;;5093278;28;19965;-69
2024/01/18 09:40:56;;;;;;;;;;;;;;;;;;5091520;28;20427;-70
2024/01/18 09:43:22;;;;;;;;;;;;;;;;;;5094185;28;20361;-69
2024/01/18 09:45:49;;;;;;;;;;;;;;;;;;5094364;28;19920;-69
2024/01/18 09:48:15;;;;;;;;;;;;;;;;;;5091561;28;19992;-70
2024/01/18 09:50:41;;;;;;;;;;;;;;;;;;5090608;28;19924;-69
2024/01/18 09:53:07;;;;;;;;;;;;;;;;;;5093935;28;19919;-70
2024/01/18 09:55:34;;;;;;;;;;;;;;;;;;5090273;28;19965;-69
2024/01/18 09:58:00;;;;;;;;;;;;;;;;;;5090463;28;20332;-69
2024/01/18 10:00:26;;;;;;;;;;;;;;;;;;5079888;28;19924;-69
2024/01/18 10:02:53;;;;;;;;;;;;;;;;;;5092942;28;19923;-70
2024/01/18 10:05:19;;;;;;;;;;;;;;;;;;5093940;28;19959;-70
2024/01/18 10:07:46;;;;;;;;;;;;;;;;;;5093721;28;19977;-70
2024/01/18 10:10:14;;;;;;;;;;;;;;;;;;5084836;28;19981;-69
2024/01/18 10:12:41;;;;;;;;;;;;;;;;;;5091576;28;19931;-70
2024/01/18 10:15:07;;;;;;;;;;;;;;;;;;5073777;28;19936;-69
2024/01/18 10:17:34;;;;;;;;;;;;;;;;;;5079360;28;19926;-69
2024/01/18 10:20:00;;;;;;;;;;;;;;;;;;5091803;28;19928;-70
2024/01/18 10:22:28;;;;;;;;;;;;;;;;;;5086523;28;19920;-70
2024/01/18 10:24:54;;;;;;;;;;;;;;;;;;5094706;28;19927;-70
2024/01/18 10:27:21;;;;;;;;;;;;;;;;;;5093708;28;19978;-70
2024/01/18 10:29:47;;;;;;;;;;;;;;;;;;5094573;28;20443;-70
2024/01/18 10:32:13;;;;;;;;;;;;;;;;;;5108516;28;20370;-70
2024/01/18 10:34:39;;;;;;;;;;;;;;;;;;5104352;28;19924;-70
2024/01/18 10:37:06;;;;;;;;;;;;;;;;;;5099929;28;19928;-70
2024/01/18 10:39:32;;;;;;;;;;;;;;;;;;5102375;28;19956;-70
2024/01/18 10:41:58;;;;;;;;;;;;;;;;;;5087867;28;20370;-69
2024/01/18 10:44:25;;;;;;;;;;;;;;;;;;5080386;28;20363;-69
2024/01/18 10:46:51;;;;;;;;;;;;;;;;;;5078712;28;20332;-70
2024/01/18 10:49:17;;;;;;;;;;;;;;;;;;5105577;28;19923;-70
2024/01/18 10:51:43;;;;;;;;;;;;;;;;;;5093334;28;19966;-70
2024/01/18 10:54:10;;;;;;;;;;;;;;;;;;5087701;28;19965;-69
2024/01/18 10:56:38;;;;;;;;;;;;;;;;;;5089808;28;19981;-70
2024/01/18 10:59:06;;;;;;;;;;;;;;;;;;5093421;28;19928;-69
2024/01/18 11:01:32;;;;;;;;;;;;;;;;;;5091933;28;19923;-70
2024/01/18 11:03:59;;;;;;;;;;;;;;;;;;5085159;28;19919;-70
2024/01/18 11:06:25;;;;;;;;;;;;;;;;;;5091754;28;20008;-71
2024/01/18 11:08:51;;;;;;;;;;;;;;;;;;5076778;28;19920;-69
2024/01/18 11:11:18;;;;;;;;;;;;;;;;;;5084211;28;19977;-69
2024/01/18 11:13:44;;;;;;;;;;;;;;;;;;5086368;28;20338;-69
2024/01/18 11:16:10;;;;;;;;;;;;;;;;;;5090977;28;20060;-70
2024/01/18 11:18:37;;;;;;;;;;;;;;;;;;5089865;28;20336;-70
2024/01/18 11:21:06;;;;;;;;;;;;;;;;;;5091872;28;19989;-69
2024/01/18 11:23:32;;;;;;;;;;;;;;;;;;5104117;28;20374;-70
2024/01/18 11:25:59;;;;;;;;;;;;;;;;;;5094751;28;20362;-70
2024/01/18 11:28:25;;;;;;;;;;;;;;;;;;5091877;28;20331;-70
2024/01/18 11:30:51;;;;;;;;;;;;;;;;;;5092088;28;20282;-68
2024/01/18 11:33:18;;;;;;;;;;;;;;;;;;5088453;28;19919;-68
2024/01/18 11:35:44;;;;;;;;;;;;;;;;;;5088070;28;19980;-68
2024/01/18 11:38:10;;;;;;;;;;;;;;;;;;5101721;28;19931;-70
2024/01/18 11:40:37;;;;;;;;;;;;;;;;;;5085941;28;19973;-69
2024/01/18 11:43:03;;;;;;;;;;;;;;;;;;5090528;28;20393;-69
2024/01/18 11:45:29;;;;;;;;;;;;;;;;;;5092647;28;19946;-69
2024/01/18 11:47:56;;;;;;;;;;;;;;;;;;5106232;28;20442;-70
2024/01/18 11:50:22;;;;;;;;;;;;;;;;;;5097009;28;19989;-70
2024/01/18 11:52:48;;;;;;;;;;;;;;;;;;5091782;28;19969;-69
2024/01/18 11:55:16;;;;;;;;;;;;;;;;;;5103488;28;19923;-69
2024/01/18 11:57:43;;;;;;;;;;;;;;;;;;5093940;28;19966;-69
2024/01/18 12:00:10;;;;;;;;;;;;;;;;;;5098463;28;20014;-69
2024/01/18 12:02:36;;;;;;;;;;;;;;;;;;5098581;28;19920;-69
2024/01/18 12:05:04;;;;;;;;;;;;;;;;;;5089709;28;19928;-69
2024/01/18 12:07:30;;;;;;;;;;;;;;;;;;5083332;28;19990;-70
2024/01/18 12:09:57;;;;;;;;;;;;;;;;;;5088881;28;19928;-69
2024/01/18 12:12:23;;;;;;;;;;;;;;;;;;5076415;28;20358;-69
2024/01/18 12:14:49;;;;;;;;;;;;;;;;;;5082756;28;19927;-71
2024/01/18 12:17:16;;;;;;;;;;;;;;;;;;5086249;28;19924;-72
2024/01/18 12:19:42;;;;;;;;;;;;;;;;;;5091490;28;19924;-69
2024/01/18 12:22:08;;;;;;;;;;;;;;;;;;5094103;28;19963;-70
2024/01/18 12:24:34;;;;;;;;;;;;;;;;;;5076360;28;19921;-69
2024/01/18 12:27:02;;;;;;;;;;;;;;;;;;5088798;28;20431;-70
2024/01/18 12:29:28;;;;;;;;;;;;;;;;;;5089543;28;20073;-70
2024/01/18 12:31:54;;;;;;;;;;;;;;;;;;5090104;28;19927;-70
2024/01/18 12:34:21;;;;;;;;;;;;;;;;;;5083531;28;19924;-71
2024/01/18 12:36:47;;;;;;;;;;;;;;;;;;5090868;28;19920;-70
2024/01/18 12:39:13;;;;;;;;;;;;;;;;;;5086561;28;20386;-70
2024/01/18 12:41:39;;;;;;;;;;;;;;;;;;5088964;28;20348;-69
2024/01/18 12:44:06;;;;;;;;;;;;;;;;;;5080298;28;20388;-71
2024/01/18 12:46:32;;;;;;;;;;;;;;;;;;5076314;28;19926;-70
2024/01/18 12:48:58;;;;;;;;;;;;;;;;;;5084696;28;20020;-70
2024/01/18 12:51:25;;;;;;;;;;;;;;;;;;5080127;28;19970;-69
2024/01/18 12:53:51;;;;;;;;;;;;;;;;;;5091480;28;19924;-70
2024/01/18 12:56:17;;;;;;;;;;;;;;;;;;5091474;28;19920;-69
2024/01/18 12:58:43;;;;;;;;;;;;;;;;;;5093281;28;19924;-70
2024/01/18 13:01:10;;;;;;;;;;;;;;;;;;5084326;28;20436;-70
2024/01/18 13:03:36;;;;;;;;;;;;;;;;;;5084933;28;20340;-70
2024/01/18 13:06:04;;;;;;;;;;;;;;;;;;5094361;28;19934;-69
2024/01/18 13:08:31;;;;;;;;;;;;;;;;;;5091409;28;19920;-69
2024/01/18 13:10:57;;;;;;;;;;;;;;;;;;5091563;28;20018;-69
2024/01/18 13:13:23;;;;;;;;;;;;;;;;;;5091322;28;19924;-70
2024/01/18 13:15:49;;;;;;;;;;;;;;;;;;5091425;28;19965;-70
2024/01/18 13:18:16;;;;;;;;;;;;;;;;;;5092659;28;19977;-70
2024/01/18 13:20:43;;;;;;;;;;;;;;;;;;5088290;28;20377;-70
2024/01/18 13:23:09;;;;;;;;;;;;;;;;;;5085067;28;20421;-69
2024/01/18 13:25:36;;;;;;;;;;;;;;;;;;5075004;28;19928;-70
2024/01/18 13:28:02;;;;;;;;;;;;;;;;;;5074835;28;19935;-69
2024/01/18 13:30:28;;;;;;;;;;;;;;;;;;5074629;28;19966;-69
2024/01/18 13:32:55;;;;;;;;;;;;;;;;;;5074635;28;20426;-69
2024/01/18 13:35:21;;;;;;;;;;;;;;;;;;5074718;28;19928;-70
2024/01/18 13:37:48;;;;;;;;;;;;;;;;;;5074475;28;19924;-70
2024/01/18 13:40:14;;;;;;;;;;;;;;;;;;5083160;28;19974;-69
2024/01/18 13:42:41;;;;;;;;;;;;;;;;;;5087756;28;19924;-71
2024/01/18 13:45:08;;;;;;;;;;;;;;;;;;5085781;28;20023;-70
2024/01/18 13:47:35;;;;;;;;;;;;;;;;;;5107181;28;20414;-69
2024/01/18 13:50:02;;;;;;;;;;;;;;;;;;5102264;28;19919;-70
2024/01/18 13:52:29;;;;;;;;;;;;;;;;;;5114905;28;20010;-71
2024/01/18 13:54:56;;;;;;;;;;;;;;;;;;5077221;28;20023;-71
2024/01/18 13:57:22;;;;;;;;;;;;;;;;;;5090200;28;20277;-70
2024/01/18 13:59:48;;;;;;;;;;;;;;;;;;5087808;28;19989;-71
2024/01/18 14:02:14;;;;;;;;;;;;;;;;;;5093458;28;20002;-70
2024/01/18 14:04:41;;;;;;;;;;;;;;;;;;5091355;28;19927;-71
2024/01/18 14:07:07;;;;;;;;;;;;;;;;;;5088292;28;19928;-71
2024/01/18 14:09:33;;;;;;;;;;;;;;;;;;5082382;28;19937;-70
2024/01/18 14:12:00;;;;;;;;;;;;;;;;;;5085815;28;19920;-70
2024/01/18 14:14:26;;;;;;;;;;;;;;;;;;5081832;28;19933;-71
2024/01/18 14:16:52;;;;;;;;;;;;;;;;;;5085808;28;20382;-70
2024/01/18 14:19:19;;;;;;;;;;;;;;;;;;5107063;28;19950;-69
2024/01/18 14:21:45;;;;;;;;;;;;;;;;;;5093041;28;19970;-69
2024/01/18 14:24:12;;;;;;;;;;;;;;;;;;5092914;28;19924;-70
2024/01/18 14:26:39;;;;;;;;;;;;;;;;;;5084214;28;19939;-70
2024/01/18 14:29:10;;;;;;;;;;;;;;;;;;5091985;28;19927;-69
2024/01/18 14:31:36;;;;;;;;;;;;;;;;;;5092490;28;19927;-69
2024/01/18 14:34:02;;;;;;;;;;;;;;;;;;5093532;28;19920;-69
2024/01/18 14:36:29;;;;;;;;;;;;;;;;;;5085153;28;19920;-70
2024/01/18 14:38:55;;;;;;;;;;;;;;;;;;5094826;28;19980;-69
2024/01/18 14:41:21;;;;;;;;;;;;;;;;;;5092945;28;19920;-69
2024/01/18 14:43:48;;;;;;;;;;;;;;;;;;5093350;28;19924;-69
2024/01/18 14:46:14;;;;;;;;;;;;;;;;;;5087785;28;19923;-69
2024/01/18 14:48:40;;;;;;;;;;;;;;;;;;5091642;28;20374;-69
2024/01/18 14:51:06;;;;;;;;;;;;;;;;;;5092506;28;20383;-70
2024/01/18 14:53:33;;;;;;;;;;;;;;;;;;5086258;28;19924;-69
2024/01/18 14:55:59;;;;;;;;;;;;;;;;;;5093139;28;19919;-69
2024/01/18 14:58:25;;;;;;;;;;;;;;;;;;5092863;28;19928;-69
2024/01/18 15:00:51;;;;;;;;;;;;;;;;;;5092769;28;20032;-69
2024/01/18 15:03:17;;;;;;;;;;;;;;;;;;5094017;28;19985;-72
2024/01/18 15:05:44;;;;;;;;;;;;;;;;;;5080273;28;19970;-69
2024/01/18 15:08:10;;;;;;;;;;;;;;;;;;5092410;28;19973;-70
2024/01/18 15:10:36;;;;;;;;;;;;;;;;;;5092223;28;20371;-70
2024/01/18 15:13:03;;;;;;;;;;;;;;;;;;5091264;28;19920;-70
2024/01/18 15:15:29;;;;;;;;;;;;;;;;;;5091789;28;19927;-70
2024/01/18 15:17:56;;;;;;;;;;;;;;;;;;5071948;28;20302;-70
2024/01/18 15:20:23;;;;;;;;;;;;;;;;;;5089529;28;19920;-69
2024/01/18 15:22:49;;;;;;;;;;;;;;;;;;5092275;28;19920;-69
2024/01/18 15:25:15;;;;;;;;;;;;;;;;;;5086465;28;19928;-71
2024/01/18 15:27:41;;;;;;;;;;;;;;;;;;5091127;28;19924;-69
2024/01/18 15:30:08;;;;;;;;;;;;;;;;;;5089873;28;19923;-70
2024/01/18 15:32:34;;;;;;;;;;;;;;;;;;5098265;28;19924;-74
2024/01/18 15:35:00;;;;;;;;;;;;;;;;;;5092374;28;20007;-74
2024/01/18 15:37:27;;;;;;;;;;;;;;;;;;5080743;28;20391;-74
2024/01/18 15:39:53;;;;;;;;;;;;;;;;;;5089767;28;20344;-74
2024/01/18 15:42:19;;;;;;;;;;;;;;;;;;5087926;28;20267;-74
2024/01/18 15:44:45;;;;;;;;;;;;;;;;;;5088534;28;19981;-74
2024/01/18 15:47:13;;;;;;;;;;;;;;;;;;5094444;28;19959;-74
2024/01/18 15:49:40;;;;;;;;;;;;;;;;;;5090639;28;19927;-73
2024/01/18 15:52:06;;;;;;;;;;;;;;;;;;5090876;28;19977;-73
2024/01/18 15:54:32;;;;;;;;;;;;;;;;;;5083650;28;19920;-73
2024/01/18 15:56:58;;;;;;;;;;;;;;;;;;5080737;28;19927;-73
2024/01/18 15:59:25;;;;;;;;;;;;;;;;;;5107247;28;19919;-72
2024/01/18 16:01:51;;;;;;;;;;;;;;;;;;5075155;28;19924;-73
2024/01/18 16:04:17;;;;;;;;;;;;;;;;;;5082999;28;20370;-73
2024/01/18 16:06:43;;;;;;;;;;;;;;;;;;5087904;28;20283;-72
2024/01/18 16:09:11;;;;;;;;;;;;;;;;;;5089714;28;19924;-73
2024/01/18 16:11:37;;;;;;;;;;;;;;;;;;5089373;28;19998;-74
2024/01/18 16:14:03;;;;;;;;;;;;;;;;;;5088650;28;20017;-74
2024/01/18 16:16:30;;;;;;;;;;;;;;;;;;5079962;28;19920;-73
2024/01/18 16:18:56;;;;;;;;;;;;;;;;;;5091621;28;19928;-74
2024/01/18 16:21:22;;;;;;;;;;;;;;;;;;5090998;28;20337;-74
2024/01/18 16:23:48;;;;;;;;;;;;;;;;;;5086198;28;20003;-72
2024/01/18 16:26:15;;;;;;;;;;;;;;;;;;5089811;28;19924;-72
2024/01/18 16:28:41;;;;;;;;;;;;;;;;;;5089160;28;19928;-73
2024/01/18 16:31:07;;;;;;;;;;;;;;;;;;5090882;28;19974;-73
2024/01/18 16:33:33;;;;;;;;;;;;;;;;;;5086253;28;19974;-73
2024/01/18 16:36:00;;;;;;;;;;;;;;;;;;5087323;28;19920;-72
2024/01/18 16:38:26;;;;;;;;;;;;;;;;;;5084950;28;20367;-73